sensor_id;sensor_type;location;lat;lon;timestamp;P1;durP1;ratioP1;P2;durP2;ratioP2
12059;SDS011;6091;51.432;6.880;2022-10-23T00:01:37;1.67;;;1.10;;
12059;SDS011;6091;51.432;6.880;2022-10-23T00:04:09;1.40;;;1.30;;
12059;SDS011;6091;51.432;6.880;2022-10-23T00:06:45;1.25;;;1.13;;
12059;SDS011;6091;51.432;6.880;2022-10-23T00:09:14;1.30;;;1.20;;
12059;SDS011;6091;51.432;6.880;2022-10-23T00:11:44;1.45;;;1.35;;
12059;SDS011;6091;51.432;6.880;2022-10-23T00:14:13;1.60;;;1.50;;
12059;SDS011;6091;51.432;6.880;2022-10-23T00:16:43;1.38;;;1.27;;
12059;SDS011;6091;51.432;6.880;2022-10-23T00:19:11;1.30;;;1.20;;
12059;SDS011;6091;51.432;6.880;2022-10-23T00:21:38;1.38;;;1.27;;
12059;SDS011;6091;51.432;6.880;2022-10-23T00:24:05;1.30;;;1.20;;
12059;SDS011;6091;51.432;6.880;2022-10-23T00:26:35;1.25;;;1.15;;
12059;SDS011;6091;51.432;6.880;2022-10-23T00:29:04;1.20;;;1.10;;
12059;SDS011;6091;51.432;6.880;2022-10-23T00:31:34;1.20;;;1.10;;
12059;SDS011;6091;51.432;6.880;2022-10-23T00:34:01;1.10;;;1.00;;
12059;SDS011;6091;51.432;6.880;2022-10-23T00:36:29;1.33;;;1.23;;
12059;SDS011;6091;51.432;6.880;2022-10-23T00:39:42;1.25;;;1.10;;
12059;SDS011;6091;51.432;6.880;2022-10-23T00:42:11;1.40;;;1.30;;
12059;SDS011;6091;51.432;6.880;2022-10-23T00:47:09;1.17;;;1.17;;
12059;SDS011;6091;51.432;6.880;2022-10-23T00:49:39;0.95;;;0.95;;
12059;SDS011;6091;51.432;6.880;2022-10-23T00:52:08;1.20;;;1.10;;
12059;SDS011;6091;51.432;6.880;2022-10-23T00:54:39;1.05;;;1.00;;
12059;SDS011;6091;51.432;6.880;2022-10-23T00:57:12;1.23;;;1.13;;
12059;SDS011;6091;51.432;6.880;2022-10-23T00:59:40;1.45;;;1.30;;
12059;SDS011;6091;51.432;6.880;2022-10-23T01:02:08;1.23;;;1.00;;
12059;SDS011;6091;51.432;6.880;2022-10-23T01:04:35;1.20;;;1.00;;
12059;SDS011;6091;51.432;6.880;2022-10-23T01:13:22;1.05;;;1.00;;
12059;SDS011;6091;51.432;6.880;2022-10-23T01:16:08;1.15;;;1.10;;
12059;SDS011;6091;51.432;6.880;2022-10-23T01:18:54;1.50;;;1.20;;
12059;SDS011;6091;51.432;6.880;2022-10-23T01:21:46;1.65;;;1.10;;
12059;SDS011;6091;51.432;6.880;2022-10-23T01:30:11;1.40;;;1.25;;
12059;SDS011;6091;51.432;6.880;2022-10-23T01:32:43;1.35;;;1.20;;
12059;SDS011;6091;51.432;6.880;2022-10-23T01:35:28;0.95;;;0.95;;
12059;SDS011;6091;51.432;6.880;2022-10-23T01:38:20;1.10;;;1.00;;
12059;SDS011;6091;51.432;6.880;2022-10-23T01:40:54;1.40;;;1.30;;
12059;SDS011;6091;51.432;6.880;2022-10-23T01:43:33;1.05;;;0.95;;
12059;SDS011;6091;51.432;6.880;2022-10-23T01:46:28;1.30;;;1.20;;
12059;SDS011;6091;51.432;6.880;2022-10-23T01:48:57;1.13;;;1.02;;
12059;SDS011;6091;51.432;6.880;2022-10-23T01:51:26;1.05;;;1.00;;
12059;SDS011;6091;51.432;6.880;2022-10-23T01:53:57;1.10;;;1.05;;
12059;SDS011;6091;51.432;6.880;2022-10-23T01:56:28;1.63;;;1.10;;
12059;SDS011;6091;51.432;6.880;2022-10-23T01:59:02;0.95;;;0.90;;
12059;SDS011;6091;51.432;6.880;2022-10-23T02:01:36;1.20;;;1.10;;
12059;SDS011;6091;51.432;6.880;2022-10-23T02:04:11;1.10;;;0.80;;
12059;SDS011;6091;51.432;6.880;2022-10-23T02:06:49;0.90;;;0.90;;
12059;SDS011;6091;51.432;6.880;2022-10-23T02:09:23;1.10;;;1.00;;
12059;SDS011;6091;51.432;6.880;2022-10-23T02:11:54;0.85;;;0.85;;
12059;SDS011;6091;51.432;6.880;2022-10-23T02:21:13;1.02;;;1.00;;
12059;SDS011;6091;51.432;6.880;2022-10-23T02:23:51;1.00;;;0.90;;
12059;SDS011;6091;51.432;6.880;2022-10-23T02:26:34;0.80;;;0.80;;
12059;SDS011;6091;51.432;6.880;2022-10-23T02:29:16;1.20;;;1.10;;
12059;SDS011;6091;51.432;6.880;2022-10-23T02:31:54;1.17;;;1.08;;
12059;SDS011;6091;51.432;6.880;2022-10-23T02:34:21;1.13;;;0.90;;
12059;SDS011;6091;51.432;6.880;2022-10-23T02:36:48;1.13;;;1.00;;
12059;SDS011;6091;51.432;6.880;2022-10-23T02:39:16;1.10;;;1.00;;
12059;SDS011;6091;51.432;6.880;2022-10-23T02:41:47;1.23;;;1.13;;
12059;SDS011;6091;51.432;6.880;2022-10-23T02:48:21;0.88;;;0.88;;
12059;SDS011;6091;51.432;6.880;2022-10-23T02:50:39;0.77;;;0.77;;
12059;SDS011;6091;51.432;6.880;2022-10-23T02:53:28;0.80;;;0.80;;
12059;SDS011;6091;51.432;6.880;2022-10-23T02:56:30;0.80;;;0.80;;
12059;SDS011;6091;51.432;6.880;2022-10-23T02:59:26;1.48;;;0.95;;
12059;SDS011;6091;51.432;6.880;2022-10-23T03:02:27;0.80;;;0.80;;
12059;SDS011;6091;51.432;6.880;2022-10-23T03:05:10;0.95;;;0.90;;
12059;SDS011;6091;51.432;6.880;2022-10-23T03:07:43;0.93;;;0.90;;
12059;SDS011;6091;51.432;6.880;2022-10-23T03:10:12;1.05;;;0.90;;
12059;SDS011;6091;51.432;6.880;2022-10-23T03:12:39;0.90;;;0.90;;
12059;SDS011;6091;51.432;6.880;2022-10-23T03:15:09;1.10;;;1.00;;
12059;SDS011;6091;51.432;6.880;2022-10-23T03:17:37;0.95;;;0.90;;
12059;SDS011;6091;51.432;6.880;2022-10-23T03:20:06;0.80;;;0.80;;
12059;SDS011;6091;51.432;6.880;2022-10-23T03:22:34;1.00;;;1.00;;
12059;SDS011;6091;51.432;6.880;2022-10-23T03:25:01;0.73;;;0.73;;
12059;SDS011;6091;51.432;6.880;2022-10-23T03:27:29;1.00;;;0.93;;
12059;SDS011;6091;51.432;6.880;2022-10-23T03:29:55;0.85;;;0.85;;
12059;SDS011;6091;51.432;6.880;2022-10-23T03:32:22;1.02;;;1.00;;
12059;SDS011;6091;51.432;6.880;2022-10-23T03:34:49;0.90;;;0.90;;
12059;SDS011;6091;51.432;6.880;2022-10-23T03:37:16;0.90;;;0.90;;
12059;SDS011;6091;51.432;6.880;2022-10-23T03:39:43;0.80;;;0.80;;
12059;SDS011;6091;51.432;6.880;2022-10-23T03:42:10;0.88;;;0.70;;
12059;SDS011;6091;51.432;6.880;2022-10-23T03:44:37;0.88;;;0.88;;
12059;SDS011;6091;51.432;6.880;2022-10-23T03:47:04;1.10;;;1.00;;
12059;SDS011;6091;51.432;6.880;2022-10-23T03:49:31;0.90;;;0.90;;
12059;SDS011;6091;51.432;6.880;2022-10-23T03:51:58;1.08;;;0.88;;
12059;SDS011;6091;51.432;6.880;2022-10-23T03:54:28;0.70;;;0.70;;
12059;SDS011;6091;51.432;6.880;2022-10-23T03:57:01;0.80;;;0.80;;
12059;SDS011;6091;51.432;6.880;2022-10-23T03:59:28;1.00;;;0.90;;
12059;SDS011;6091;51.432;6.880;2022-10-23T04:01:56;1.23;;;0.70;;
12059;SDS011;6091;51.432;6.880;2022-10-23T04:04:23;1.10;;;1.00;;
12059;SDS011;6091;51.432;6.880;2022-10-23T04:06:50;1.40;;;0.98;;
12059;SDS011;6091;51.432;6.880;2022-10-23T04:09:17;1.27;;;1.00;;
12059;SDS011;6091;51.432;6.880;2022-10-23T04:14:13;1.02;;;0.90;;
12059;SDS011;6091;51.432;6.880;2022-10-23T04:16:41;0.93;;;0.90;;
12059;SDS011;6091;51.432;6.880;2022-10-23T04:19:08;0.88;;;0.88;;
12059;SDS011;6091;51.432;6.880;2022-10-23T04:21:35;1.00;;;0.80;;
12059;SDS011;6091;51.432;6.880;2022-10-23T04:24:02;1.13;;;1.02;;
12059;SDS011;6091;51.432;6.880;2022-10-23T04:26:29;1.10;;;0.95;;
12059;SDS011;6091;51.432;6.880;2022-10-23T04:28:56;1.15;;;1.05;;
12059;SDS011;6091;51.432;6.880;2022-10-23T04:31:23;0.85;;;0.85;;
12059;SDS011;6091;51.432;6.880;2022-10-23T04:33:50;0.90;;;0.90;;
12059;SDS011;6091;51.432;6.880;2022-10-23T04:36:17;1.08;;;1.02;;
12059;SDS011;6091;51.432;6.880;2022-10-23T04:38:44;0.80;;;0.80;;
12059;SDS011;6091;51.432;6.880;2022-10-23T04:41:13;0.70;;;0.70;;
12059;SDS011;6091;51.432;6.880;2022-10-23T04:43:40;1.25;;;1.02;;
12059;SDS011;6091;51.432;6.880;2022-10-23T04:46:06;0.88;;;0.80;;
12059;SDS011;6091;51.432;6.880;2022-10-23T04:48:33;0.90;;;0.90;;
12059;SDS011;6091;51.432;6.880;2022-10-23T04:51:01;1.13;;;1.05;;
12059;SDS011;6091;51.432;6.880;2022-10-23T04:53:30;0.90;;;0.90;;
12059;SDS011;6091;51.432;6.880;2022-10-23T04:55:58;0.80;;;0.80;;
12059;SDS011;6091;51.432;6.880;2022-10-23T04:58:26;0.80;;;0.80;;
12059;SDS011;6091;51.432;6.880;2022-10-23T05:00:54;1.33;;;1.05;;
12059;SDS011;6091;51.432;6.880;2022-10-23T05:03:23;0.80;;;0.80;;
12059;SDS011;6091;51.432;6.880;2022-10-23T05:06:56;0.63;;;0.63;;
12059;SDS011;6091;51.432;6.880;2022-10-23T05:09:22;1.25;;;1.10;;
12059;SDS011;6091;51.432;6.880;2022-10-23T05:11:49;1.08;;;0.98;;
12059;SDS011;6091;51.432;6.880;2022-10-23T05:14:16;1.08;;;0.90;;
12059;SDS011;6091;51.432;6.880;2022-10-23T05:17:05;0.75;;;0.75;;
12059;SDS011;6091;51.432;6.880;2022-10-23T05:19:41;0.70;;;0.70;;
12059;SDS011;6091;51.432;6.880;2022-10-23T05:22:15;0.90;;;0.90;;
12059;SDS011;6091;51.432;6.880;2022-10-23T05:24:44;0.73;;;0.73;;
12059;SDS011;6091;51.432;6.880;2022-10-23T05:27:15;0.63;;;0.63;;
12059;SDS011;6091;51.432;6.880;2022-10-23T05:29:42;0.80;;;0.80;;
12059;SDS011;6091;51.432;6.880;2022-10-23T05:32:10;0.90;;;0.90;;
12059;SDS011;6091;51.432;6.880;2022-10-23T05:34:41;1.17;;;1.08;;
12059;SDS011;6091;51.432;6.880;2022-10-23T05:37:09;0.80;;;0.80;;
12059;SDS011;6091;51.432;6.880;2022-10-23T05:39:41;0.88;;;0.88;;
12059;SDS011;6091;51.432;6.880;2022-10-23T05:42:08;0.90;;;0.73;;
12059;SDS011;6091;51.432;6.880;2022-10-23T05:44:35;1.42;;;1.02;;
12059;SDS011;6091;51.432;6.880;2022-10-23T05:47:02;0.77;;;0.75;;
12059;SDS011;6091;51.432;6.880;2022-10-23T05:49:29;0.85;;;0.80;;
12059;SDS011;6091;51.432;6.880;2022-10-23T05:51:56;0.75;;;0.75;;
12059;SDS011;6091;51.432;6.880;2022-10-23T05:54:23;1.02;;;0.93;;
12059;SDS011;6091;51.432;6.880;2022-10-23T05:56:50;1.23;;;1.00;;
12059;SDS011;6091;51.432;6.880;2022-10-23T05:59:17;0.80;;;0.80;;
12059;SDS011;6091;51.432;6.880;2022-10-23T06:01:48;0.98;;;0.80;;
12059;SDS011;6091;51.432;6.880;2022-10-23T06:04:15;0.80;;;0.80;;
12059;SDS011;6091;51.432;6.880;2022-10-23T06:06:44;0.88;;;0.88;;
12059;SDS011;6091;51.432;6.880;2022-10-23T06:09:12;0.80;;;0.80;;
12059;SDS011;6091;51.432;6.880;2022-10-23T06:11:41;1.85;;;1.00;;
12059;SDS011;6091;51.432;6.880;2022-10-23T06:14:08;1.55;;;0.88;;
12059;SDS011;6091;51.432;6.880;2022-10-23T06:16:35;0.85;;;0.80;;
12059;SDS011;6091;51.432;6.880;2022-10-23T06:19:02;1.10;;;1.00;;
12059;SDS011;6091;51.432;6.880;2022-10-23T06:21:29;1.00;;;0.90;;
12059;SDS011;6091;51.432;6.880;2022-10-23T06:24:01;0.82;;;0.82;;
12059;SDS011;6091;51.432;6.880;2022-10-23T06:26:28;1.45;;;0.90;;
12059;SDS011;6091;51.432;6.880;2022-10-23T06:28:55;0.93;;;0.75;;
12059;SDS011;6091;51.432;6.880;2022-10-23T06:31:23;1.00;;;0.90;;
12059;SDS011;6091;51.432;6.880;2022-10-23T06:33:53;0.95;;;0.95;;
12059;SDS011;6091;51.432;6.880;2022-10-23T06:36:21;0.75;;;0.75;;
12059;SDS011;6091;51.432;6.880;2022-10-23T06:38:48;0.80;;;0.80;;
12059;SDS011;6091;51.432;6.880;2022-10-23T06:41:18;0.80;;;0.80;;
12059;SDS011;6091;51.432;6.880;2022-10-23T06:43:47;0.90;;;0.90;;
12059;SDS011;6091;51.432;6.880;2022-10-23T06:46:18;0.80;;;0.80;;
12059;SDS011;6091;51.432;6.880;2022-10-23T06:48:45;0.80;;;0.80;;
12059;SDS011;6091;51.432;6.880;2022-10-23T06:51:13;0.88;;;0.82;;
12059;SDS011;6091;51.432;6.880;2022-10-23T06:53:43;0.70;;;0.70;;
12059;SDS011;6091;51.432;6.880;2022-10-23T06:56:11;0.82;;;0.82;;
12059;SDS011;6091;51.432;6.880;2022-10-23T06:58:38;0.82;;;0.60;;
12059;SDS011;6091;51.432;6.880;2022-10-23T07:01:07;0.90;;;0.90;;
12059;SDS011;6091;51.432;6.880;2022-10-23T07:03:37;0.82;;;0.82;;
12059;SDS011;6091;51.432;6.880;2022-10-23T07:06:05;0.80;;;0.80;;
12059;SDS011;6091;51.432;6.880;2022-10-23T07:08:34;0.93;;;0.90;;
12059;SDS011;6091;51.432;6.880;2022-10-23T07:11:06;0.80;;;0.80;;
12059;SDS011;6091;51.432;6.880;2022-10-23T07:13:36;0.90;;;0.90;;
12059;SDS011;6091;51.432;6.880;2022-10-23T07:16:09;0.85;;;0.85;;
12059;SDS011;6091;51.432;6.880;2022-10-23T07:18:49;0.70;;;0.70;;
12059;SDS011;6091;51.432;6.880;2022-10-23T07:21:27;0.70;;;0.70;;
12059;SDS011;6091;51.432;6.880;2022-10-23T07:24:00;0.90;;;0.90;;
12059;SDS011;6091;51.432;6.880;2022-10-23T07:26:27;0.93;;;0.90;;
12059;SDS011;6091;51.432;6.880;2022-10-23T07:28:55;0.85;;;0.85;;
12059;SDS011;6091;51.432;6.880;2022-10-23T07:31:23;0.60;;;0.60;;
12059;SDS011;6091;51.432;6.880;2022-10-23T07:33:53;0.80;;;0.80;;
12059;SDS011;6091;51.432;6.880;2022-10-23T07:36:20;0.70;;;0.70;;
12059;SDS011;6091;51.432;6.880;2022-10-23T07:38:47;1.10;;;0.90;;
12059;SDS011;6091;51.432;6.880;2022-10-23T07:41:16;1.00;;;1.00;;
12059;SDS011;6091;51.432;6.880;2022-10-23T07:43:43;0.77;;;0.77;;
12059;SDS011;6091;51.432;6.880;2022-10-23T07:46:10;0.70;;;0.70;;
12059;SDS011;6091;51.432;6.880;2022-10-23T07:48:37;0.70;;;0.70;;
12059;SDS011;6091;51.432;6.880;2022-10-23T07:51:06;0.80;;;0.80;;
12059;SDS011;6091;51.432;6.880;2022-10-23T07:53:38;0.98;;;0.80;;
12059;SDS011;6091;51.432;6.880;2022-10-23T07:56:11;0.73;;;0.73;;
12059;SDS011;6091;51.432;6.880;2022-10-23T07:58:49;0.80;;;0.80;;
12059;SDS011;6091;51.432;6.880;2022-10-23T08:01:26;0.80;;;0.80;;
12059;SDS011;6091;51.432;6.880;2022-10-23T08:04:00;0.73;;;0.73;;
12059;SDS011;6091;51.432;6.880;2022-10-23T08:06:27;1.10;;;1.00;;
12059;SDS011;6091;51.432;6.880;2022-10-23T08:08:55;0.70;;;0.70;;
12059;SDS011;6091;51.432;6.880;2022-10-23T08:11:26;0.60;;;0.60;;
12059;SDS011;6091;51.432;6.880;2022-10-23T08:13:56;0.70;;;0.60;;
12059;SDS011;6091;51.432;6.880;2022-10-23T08:16:24;0.75;;;0.75;;
12059;SDS011;6091;51.432;6.880;2022-10-23T08:18:51;0.68;;;0.60;;
12059;SDS011;6091;51.432;6.880;2022-10-23T08:21:18;0.70;;;0.70;;
12059;SDS011;6091;51.432;6.880;2022-10-23T08:23:45;0.60;;;0.60;;
12059;SDS011;6091;51.432;6.880;2022-10-23T08:26:12;0.80;;;0.80;;
12059;SDS011;6091;51.432;6.880;2022-10-23T08:28:40;0.70;;;0.70;;
12059;SDS011;6091;51.432;6.880;2022-10-23T08:31:11;0.60;;;0.60;;
12059;SDS011;6091;51.432;6.880;2022-10-23T08:33:43;0.80;;;0.80;;
12059;SDS011;6091;51.432;6.880;2022-10-23T08:36:29;0.70;;;0.70;;
12059;SDS011;6091;51.432;6.880;2022-10-23T08:38:56;0.77;;;0.77;;
12059;SDS011;6091;51.432;6.880;2022-10-23T08:44:25;1.65;;;0.90;;
12059;SDS011;6091;51.432;6.880;2022-10-23T08:47:06;0.70;;;0.70;;
12059;SDS011;6091;51.432;6.880;2022-10-23T08:53:02;1.33;;;0.80;;
12059;SDS011;6091;51.432;6.880;2022-10-23T08:55:22;0.70;;;0.70;;
12059;SDS011;6091;51.432;6.880;2022-10-23T08:58:02;0.70;;;0.70;;
12059;SDS011;6091;51.432;6.880;2022-10-23T09:00:52;0.70;;;0.70;;
12059;SDS011;6091;51.432;6.880;2022-10-23T09:03:20;0.60;;;0.60;;
12059;SDS011;6091;51.432;6.880;2022-10-23T09:11:38;0.63;;;0.63;;
12059;SDS011;6091;51.432;6.880;2022-10-23T09:17:43;0.98;;;0.60;;
12059;SDS011;6091;51.432;6.880;2022-10-23T09:22:48;0.70;;;0.70;;
12059;SDS011;6091;51.432;6.880;2022-10-23T09:25:22;0.60;;;0.60;;
12059;SDS011;6091;51.432;6.880;2022-10-23T09:27:54;0.52;;;0.52;;
12059;SDS011;6091;51.432;6.880;2022-10-23T09:32:58;0.70;;;0.70;;
12059;SDS011;6091;51.432;6.880;2022-10-23T09:35:28;0.73;;;0.73;;
12059;SDS011;6091;51.432;6.880;2022-10-23T09:37:55;0.63;;;0.63;;
12059;SDS011;6091;51.432;6.880;2022-10-23T09:40:30;0.73;;;0.73;;
12059;SDS011;6091;51.432;6.880;2022-10-23T09:43:14;0.60;;;0.60;;
12059;SDS011;6091;51.432;6.880;2022-10-23T09:45:54;0.68;;;0.68;;
12059;SDS011;6091;51.432;6.880;2022-10-23T09:48:25;0.80;;;0.80;;
12059;SDS011;6091;51.432;6.880;2022-10-23T09:50:53;0.70;;;0.70;;
12059;SDS011;6091;51.432;6.880;2022-10-23T09:53:34;0.50;;;0.50;;
12059;SDS011;6091;51.432;6.880;2022-10-23T09:56:23;0.52;;;0.52;;
12059;SDS011;6091;51.432;6.880;2022-10-23T09:59:03;0.90;;;0.90;;
12059;SDS011;6091;51.432;6.880;2022-10-23T10:01:49;0.60;;;0.60;;
12059;SDS011;6091;51.432;6.880;2022-10-23T10:07:25;0.70;;;0.70;;
12059;SDS011;6091;51.432;6.880;2022-10-23T10:10:01;0.70;;;0.70;;
12059;SDS011;6091;51.432;6.880;2022-10-23T10:12:46;0.60;;;0.60;;
12059;SDS011;6091;51.432;6.880;2022-10-23T10:15:31;0.80;;;0.70;;
12059;SDS011;6091;51.432;6.880;2022-10-23T10:18:28;1.23;;;0.80;;
12059;SDS011;6091;51.432;6.880;2022-10-23T10:21:29;0.65;;;0.60;;
12059;SDS011;6091;51.432;6.880;2022-10-23T10:24:33;0.65;;;0.65;;
12059;SDS011;6091;51.432;6.880;2022-10-23T10:30:22;2.17;;;0.90;;
12059;SDS011;6091;51.432;6.880;2022-10-23T10:32:58;3.83;;;1.08;;
12059;SDS011;6091;51.432;6.880;2022-10-23T10:41:24;4.32;;;1.55;;
12059;SDS011;6091;51.432;6.880;2022-10-23T10:44:18;6.90;;;1.00;;
12059;SDS011;6091;51.432;6.880;2022-10-23T10:47:25;4.22;;;1.40;;
12059;SDS011;6091;51.432;6.880;2022-10-23T10:50:30;4.43;;;1.20;;
12059;SDS011;6091;51.432;6.880;2022-10-23T10:53:27;8.70;;;1.48;;
12059;SDS011;6091;51.432;6.880;2022-10-23T10:56:15;7.13;;;1.38;;
12059;SDS011;6091;51.432;6.880;2022-10-23T11:01:51;8.23;;;1.50;;
12059;SDS011;6091;51.432;6.880;2022-10-23T11:07:23;3.30;;;1.20;;
12059;SDS011;6091;51.432;6.880;2022-10-23T11:09:58;109.47;;;9.57;;
12059;SDS011;6091;51.432;6.880;2022-10-23T11:12:38;100.18;;;11.32;;
12059;SDS011;6091;51.432;6.880;2022-10-23T11:15:14;53.70;;;7.85;;
12059;SDS011;6091;51.432;6.880;2022-10-23T11:17:55;37.30;;;6.28;;
12059;SDS011;6091;51.432;6.880;2022-10-23T11:26:33;21.05;;;3.50;;
12059;SDS011;6091;51.432;6.880;2022-10-23T11:32:31;24.83;;;3.42;;
12059;SDS011;6091;51.432;6.880;2022-10-23T11:38:23;15.07;;;2.38;;
12059;SDS011;6091;51.432;6.880;2022-10-23T11:41:02;15.73;;;2.03;;
12059;SDS011;6091;51.432;6.880;2022-10-23T11:43:53;7.75;;;1.60;;
12059;SDS011;6091;51.432;6.880;2022-10-23T11:49:05;5.68;;;2.03;;
12059;SDS011;6091;51.432;6.880;2022-10-23T11:51:46;8.30;;;1.35;;
12059;SDS011;6091;51.432;6.880;2022-10-23T11:54:24;5.15;;;1.58;;
12059;SDS011;6091;51.432;6.880;2022-10-23T12:05:24;4.28;;;1.23;;
12059;SDS011;6091;51.432;6.880;2022-10-23T12:08:24;3.17;;;1.05;;
12059;SDS011;6091;51.432;6.880;2022-10-23T12:10:55;10.25;;;1.50;;
12059;SDS011;6091;51.432;6.880;2022-10-23T12:13:30;3.45;;;1.30;;
12059;SDS011;6091;51.432;6.880;2022-10-23T12:16:04;4.20;;;1.33;;
12059;SDS011;6091;51.432;6.880;2022-10-23T12:18:32;3.10;;;1.33;;
12059;SDS011;6091;51.432;6.880;2022-10-23T12:21:15;3.80;;;1.40;;
12059;SDS011;6091;51.432;6.880;2022-10-23T12:38:45;3.38;;;1.00;;
12059;SDS011;6091;51.432;6.880;2022-10-23T12:41:15;2.88;;;1.20;;
12059;SDS011;6091;51.432;6.880;2022-10-23T12:44:01;3.47;;;1.30;;
12059;SDS011;6091;51.432;6.880;2022-10-23T12:49:16;3.08;;;1.30;;
12059;SDS011;6091;51.432;6.880;2022-10-23T12:52:14;3.00;;;1.48;;
12059;SDS011;6091;51.432;6.880;2022-10-23T12:54:42;2.70;;;1.33;;
12059;SDS011;6091;51.432;6.880;2022-10-23T12:57:26;3.47;;;1.30;;
12059;SDS011;6091;51.432;6.880;2022-10-23T13:00:00;4.07;;;1.20;;
12059;SDS011;6091;51.432;6.880;2022-10-23T13:02:35;2.70;;;1.05;;
12059;SDS011;6091;51.432;6.880;2022-10-23T13:05:04;3.38;;;1.40;;
12059;SDS011;6091;51.432;6.880;2022-10-23T13:07:39;1.77;;;1.23;;
12059;SDS011;6091;51.432;6.880;2022-10-23T13:10:15;1.50;;;1.23;;
12059;SDS011;6091;51.432;6.880;2022-10-23T13:13:05;1.60;;;1.10;;
12059;SDS011;6091;51.432;6.880;2022-10-23T13:15:37;2.00;;;1.00;;
12059;SDS011;6091;51.432;6.880;2022-10-23T13:18:07;2.78;;;1.50;;
12059;SDS011;6091;51.432;6.880;2022-10-23T13:20:37;2.75;;;1.38;;
12059;SDS011;6091;51.432;6.880;2022-10-23T13:26:00;3.10;;;1.60;;
12059;SDS011;6091;51.432;6.880;2022-10-23T13:28:46;2.35;;;1.20;;
12059;SDS011;6091;51.432;6.880;2022-10-23T13:33:41;3.35;;;1.40;;
12059;SDS011;6091;51.432;6.880;2022-10-23T13:36:33;2.92;;;1.52;;
12059;SDS011;6091;51.432;6.880;2022-10-23T13:41:37;2.47;;;1.63;;
12059;SDS011;6091;51.432;6.880;2022-10-23T13:44:11;3.47;;;1.40;;
12059;SDS011;6091;51.432;6.880;2022-10-23T13:46:44;2.47;;;1.30;;
12059;SDS011;6091;51.432;6.880;2022-10-23T13:49:13;1.60;;;1.40;;
12059;SDS011;6091;51.432;6.880;2022-10-23T13:51:59;2.55;;;1.40;;
12059;SDS011;6091;51.432;6.880;2022-10-23T13:54:27;1.90;;;1.38;;
12059;SDS011;6091;51.432;6.880;2022-10-23T13:56:55;1.70;;;1.30;;
12059;SDS011;6091;51.432;6.880;2022-10-23T13:59:22;2.47;;;1.55;;
12059;SDS011;6091;51.432;6.880;2022-10-23T14:01:50;2.55;;;1.50;;
12059;SDS011;6091;51.432;6.880;2022-10-23T14:04:18;3.10;;;1.67;;
12059;SDS011;6091;51.432;6.880;2022-10-23T14:06:46;3.08;;;1.60;;
12059;SDS011;6091;51.432;6.880;2022-10-23T14:09:14;3.15;;;1.60;;
12059;SDS011;6091;51.432;6.880;2022-10-23T14:11:43;1.83;;;1.42;;
12059;SDS011;6091;51.432;6.880;2022-10-23T14:14:10;1.60;;;1.27;;
12059;SDS011;6091;51.432;6.880;2022-10-23T14:16:37;1.60;;;1.50;;
12059;SDS011;6091;51.432;6.880;2022-10-23T14:19:05;2.88;;;1.52;;
12059;SDS011;6091;51.432;6.880;2022-10-23T14:21:33;2.30;;;1.80;;
12059;SDS011;6091;51.432;6.880;2022-10-23T14:24:00;2.25;;;1.55;;
12059;SDS011;6091;51.432;6.880;2022-10-23T14:26:26;2.08;;;1.50;;
12059;SDS011;6091;51.432;6.880;2022-10-23T14:28:57;2.58;;;1.40;;
12059;SDS011;6091;51.432;6.880;2022-10-23T14:31:32;1.67;;;1.45;;
12059;SDS011;6091;51.432;6.880;2022-10-23T14:34:01;2.75;;;1.40;;
12059;SDS011;6091;51.432;6.880;2022-10-23T14:36:28;2.30;;;1.70;;
12059;SDS011;6091;51.432;6.880;2022-10-23T14:39:15;2.20;;;1.33;;
12059;SDS011;6091;51.432;6.880;2022-10-23T14:41:43;2.60;;;1.50;;
12059;SDS011;6091;51.432;6.880;2022-10-23T14:44:10;1.58;;;1.20;;
12059;SDS011;6091;51.432;6.880;2022-10-23T14:46:36;1.95;;;1.27;;
12059;SDS011;6091;51.432;6.880;2022-10-23T14:49:04;2.42;;;1.40;;
12059;SDS011;6091;51.432;6.880;2022-10-23T14:51:31;2.80;;;1.60;;
12059;SDS011;6091;51.432;6.880;2022-10-23T14:53:59;1.88;;;1.40;;
12059;SDS011;6091;51.432;6.880;2022-10-23T14:56:35;2.50;;;1.30;;
12059;SDS011;6091;51.432;6.880;2022-10-23T14:59:05;1.70;;;1.40;;
12059;SDS011;6091;51.432;6.880;2022-10-23T15:01:34;2.45;;;1.42;;
12059;SDS011;6091;51.432;6.880;2022-10-23T15:04:10;2.42;;;1.60;;
12059;SDS011;6091;51.432;6.880;2022-10-23T15:06:39;1.90;;;1.40;;
12059;SDS011;6091;51.432;6.880;2022-10-23T15:09:07;2.78;;;1.40;;
12059;SDS011;6091;51.432;6.880;2022-10-23T15:11:34;1.20;;;1.10;;
12059;SDS011;6091;51.432;6.880;2022-10-23T15:14:01;1.30;;;1.13;;
12059;SDS011;6091;51.432;6.880;2022-10-23T15:16:28;1.58;;;1.10;;
12059;SDS011;6091;51.432;6.880;2022-10-23T15:18:55;1.95;;;1.35;;
12059;SDS011;6091;51.432;6.880;2022-10-23T15:21:22;2.45;;;1.48;;
12059;SDS011;6091;51.432;6.880;2022-10-23T15:23:49;2.55;;;1.42;;
12059;SDS011;6091;51.432;6.880;2022-10-23T15:26:18;1.60;;;1.17;;
12059;SDS011;6091;51.432;6.880;2022-10-23T15:28:52;2.25;;;1.30;;
12059;SDS011;6091;51.432;6.880;2022-10-23T15:34:04;1.13;;;1.00;;
12059;SDS011;6091;51.432;6.880;2022-10-23T15:36:32;1.90;;;1.42;;
12059;SDS011;6091;51.432;6.880;2022-10-23T15:39:00;1.50;;;1.20;;
12059;SDS011;6091;51.432;6.880;2022-10-23T15:41:31;1.75;;;1.30;;
12059;SDS011;6091;51.432;6.880;2022-10-23T15:44:04;2.67;;;1.40;;
12059;SDS011;6091;51.432;6.880;2022-10-23T15:46:33;1.70;;;1.20;;
12059;SDS011;6091;51.432;6.880;2022-10-23T15:49:01;1.65;;;1.25;;
12059;SDS011;6091;51.432;6.880;2022-10-23T15:51:28;1.25;;;1.10;;
12059;SDS011;6091;51.432;6.880;2022-10-23T15:53:56;1.58;;;1.40;;
12059;SDS011;6091;51.432;6.880;2022-10-23T15:56:23;1.35;;;1.10;;
12059;SDS011;6091;51.432;6.880;2022-10-23T15:58:51;1.27;;;1.17;;
12059;SDS011;6091;51.432;6.880;2022-10-23T16:01:18;1.38;;;1.27;;
12059;SDS011;6091;51.432;6.880;2022-10-23T16:03:45;1.05;;;0.93;;
12059;SDS011;6091;51.432;6.880;2022-10-23T16:06:12;1.95;;;1.20;;
12059;SDS011;6091;51.432;6.880;2022-10-23T16:08:41;1.92;;;1.50;;
12059;SDS011;6091;51.432;6.880;2022-10-23T16:11:16;1.30;;;1.20;;
12059;SDS011;6091;51.432;6.880;2022-10-23T16:13:55;2.70;;;1.30;;
12059;SDS011;6091;51.432;6.880;2022-10-23T16:16:24;1.40;;;1.17;;
12059;SDS011;6091;51.432;6.880;2022-10-23T16:18:59;1.58;;;1.20;;
12059;SDS011;6091;51.432;6.880;2022-10-23T16:21:30;1.15;;;0.90;;
12059;SDS011;6091;51.432;6.880;2022-10-23T16:24:01;2.05;;;1.38;;
12059;SDS011;6091;51.432;6.880;2022-10-23T16:26:32;1.20;;;1.10;;
12059;SDS011;6091;51.432;6.880;2022-10-23T16:29:01;0.90;;;0.90;;
12059;SDS011;6091;51.432;6.880;2022-10-23T16:31:31;2.03;;;1.17;;
12059;SDS011;6091;51.432;6.880;2022-10-23T16:34:01;1.10;;;1.00;;
12059;SDS011;6091;51.432;6.880;2022-10-23T16:36:29;1.73;;;0.93;;
12059;SDS011;6091;51.432;6.880;2022-10-23T16:38:57;1.20;;;1.10;;
12059;SDS011;6091;51.432;6.880;2022-10-23T16:41:27;1.60;;;1.15;;
12059;SDS011;6091;51.432;6.880;2022-10-23T16:43:54;1.35;;;0.98;;
12059;SDS011;6091;51.432;6.880;2022-10-23T16:46:21;1.00;;;0.90;;
12059;SDS011;6091;51.432;6.880;2022-10-23T16:48:49;1.13;;;1.00;;
12059;SDS011;6091;51.432;6.880;2022-10-23T16:51:18;1.30;;;0.98;;
12059;SDS011;6091;51.432;6.880;2022-10-23T16:53:49;1.10;;;1.00;;
12059;SDS011;6091;51.432;6.880;2022-10-23T16:56:18;1.10;;;1.00;;
12059;SDS011;6091;51.432;6.880;2022-10-23T16:58:48;1.10;;;1.00;;
12059;SDS011;6091;51.432;6.880;2022-10-23T17:01:17;1.27;;;1.00;;
12059;SDS011;6091;51.432;6.880;2022-10-23T17:03:49;1.10;;;1.00;;
12059;SDS011;6091;51.432;6.880;2022-10-23T17:06:19;1.38;;;1.15;;
12059;SDS011;6091;51.432;6.880;2022-10-23T17:08:56;1.35;;;1.13;;
12059;SDS011;6091;51.432;6.880;2022-10-23T17:11:26;1.10;;;0.90;;
12059;SDS011;6091;51.432;6.880;2022-10-23T17:19:15;1.52;;;1.10;;
12059;SDS011;6091;51.432;6.880;2022-10-23T17:22:06;1.35;;;1.10;;
12059;SDS011;6091;51.432;6.880;2022-10-23T17:24:36;2.88;;;1.10;;
12059;SDS011;6091;51.432;6.880;2022-10-23T17:27:05;1.10;;;1.00;;
12059;SDS011;6091;51.432;6.880;2022-10-23T17:29:32;1.17;;;1.08;;
12059;SDS011;6091;51.432;6.880;2022-10-23T17:31:59;1.20;;;1.10;;
12059;SDS011;6091;51.432;6.880;2022-10-23T17:34:26;1.00;;;0.98;;
12059;SDS011;6091;51.432;6.880;2022-10-23T17:36:54;1.25;;;0.98;;